sensor_id;sensor_type;location;lat;lon;timestamp;P1;durP1;ratioP1;P2;durP2;ratioP2
46158;SDS011;31888;44.512;26.104;2023-02-28T00:00:06;26.92;;;12.85;;
46158;SDS011;31888;44.512;26.104;2023-02-28T00:02:32;25.40;;;13.07;;
46158;SDS011;31888;44.512;26.104;2023-02-28T00:04:57;25.35;;;12.85;;
46158;SDS011;31888;44.512;26.104;2023-02-28T00:07:27;24.85;;;12.65;;
46158;SDS011;31888;44.512;26.104;2023-02-28T00:09:51;21.08;;;10.95;;
46158;SDS011;31888;44.512;26.104;2023-02-28T00:12:16;24.90;;;12.65;;
46158;SDS011;31888;44.512;26.104;2023-02-28T00:14:40;25.10;;;13.48;;
46158;SDS011;31888;44.512;26.104;2023-02-28T00:17:05;18.67;;;8.23;;
46158;SDS011;31888;44.512;26.104;2023-02-28T00:19:30;23.95;;;12.20;;
46158;SDS011;31888;44.512;26.104;2023-02-28T00:21:54;27.08;;;13.32;;
46158;SDS011;31888;44.512;26.104;2023-02-28T00:24:20;26.83;;;12.90;;
46158;SDS011;31888;44.512;26.104;2023-02-28T00:26:44;26.40;;;12.18;;
46158;SDS011;31888;44.512;26.104;2023-02-28T00:29:09;24.10;;;11.98;;
46158;SDS011;31888;44.512;26.104;2023-02-28T00:31:33;28.10;;;13.55;;
46158;SDS011;31888;44.512;26.104;2023-02-28T00:33:59;25.42;;;12.20;;
46158;SDS011;31888;44.512;26.104;2023-02-28T00:36:23;28.70;;;13.20;;
46158;SDS011;31888;44.512;26.104;2023-02-28T00:38:48;23.23;;;11.43;;
46158;SDS011;31888;44.512;26.104;2023-02-28T00:41:13;30.00;;;14.07;;
46158;SDS011;31888;44.512;26.104;2023-02-28T00:43:38;24.88;;;11.27;;
46158;SDS011;31888;44.512;26.104;2023-02-28T00:46:03;23.98;;;11.25;;
46158;SDS011;31888;44.512;26.104;2023-02-28T00:48:28;21.55;;;11.32;;
46158;SDS011;31888;44.512;26.104;2023-02-28T00:50:53;26.13;;;11.75;;
46158;SDS011;31888;44.512;26.104;2023-02-28T00:53:17;22.23;;;10.20;;
46158;SDS011;31888;44.512;26.104;2023-02-28T00:55:42;24.73;;;10.93;;
46158;SDS011;31888;44.512;26.104;2023-02-28T00:58:10;28.52;;;12.57;;
46158;SDS011;31888;44.512;26.104;2023-02-28T01:00:35;20.08;;;10.23;;
46158;SDS011;31888;44.512;26.104;2023-02-28T01:02:59;27.08;;;12.18;;
46158;SDS011;31888;44.512;26.104;2023-02-28T01:05:24;22.25;;;10.18;;
46158;SDS011;31888;44.512;26.104;2023-02-28T01:07:48;24.13;;;11.90;;
46158;SDS011;31888;44.512;26.104;2023-02-28T01:10:12;26.63;;;12.27;;
46158;SDS011;31888;44.512;26.104;2023-02-28T01:12:37;23.70;;;12.55;;
46158;SDS011;31888;44.512;26.104;2023-02-28T01:15:05;28.60;;;13.02;;
46158;SDS011;31888;44.512;26.104;2023-02-28T01:17:30;26.80;;;11.93;;
46158;SDS011;31888;44.512;26.104;2023-02-28T01:19:55;26.08;;;12.23;;
46158;SDS011;31888;44.512;26.104;2023-02-28T01:22:20;23.60;;;10.25;;
46158;SDS011;31888;44.512;26.104;2023-02-28T01:24:44;28.88;;;14.52;;
46158;SDS011;31888;44.512;26.104;2023-02-28T01:27:09;27.95;;;13.23;;
46158;SDS011;31888;44.512;26.104;2023-02-28T01:29:34;26.50;;;13.75;;
46158;SDS011;31888;44.512;26.104;2023-02-28T01:31:59;23.88;;;12.45;;
46158;SDS011;31888;44.512;26.104;2023-02-28T01:34:24;25.33;;;11.63;;
46158;SDS011;31888;44.512;26.104;2023-02-28T01:36:49;23.70;;;11.65;;
46158;SDS011;31888;44.512;26.104;2023-02-28T01:39:14;19.00;;;9.65;;
46158;SDS011;31888;44.512;26.104;2023-02-28T01:41:38;27.60;;;12.80;;
46158;SDS011;31888;44.512;26.104;2023-02-28T01:44:04;28.08;;;14.23;;
46158;SDS011;31888;44.512;26.104;2023-02-28T01:46:35;31.42;;;14.15;;
46158;SDS011;31888;44.512;26.104;2023-02-28T01:49:06;26.20;;;12.43;;
46158;SDS011;31888;44.512;26.104;2023-02-28T01:51:36;26.98;;;13.43;;
46158;SDS011;31888;44.512;26.104;2023-02-28T01:54:08;28.50;;;12.82;;
46158;SDS011;31888;44.512;26.104;2023-02-28T01:56:36;25.38;;;12.00;;
46158;SDS011;31888;44.512;26.104;2023-02-28T01:59:01;23.42;;;12.40;;
46158;SDS011;31888;44.512;26.104;2023-02-28T02:01:27;29.98;;;13.77;;
46158;SDS011;31888;44.512;26.104;2023-02-28T02:03:56;27.73;;;13.15;;
46158;SDS011;31888;44.512;26.104;2023-02-28T02:06:26;25.52;;;12.75;;
46158;SDS011;31888;44.512;26.104;2023-02-28T02:08:53;25.48;;;12.00;;
46158;SDS011;31888;44.512;26.104;2023-02-28T02:11:18;24.88;;;12.23;;
46158;SDS011;31888;44.512;26.104;2023-02-28T02:13:49;25.98;;;13.43;;
46158;SDS011;31888;44.512;26.104;2023-02-28T02:16:28;24.58;;;10.70;;
46158;SDS011;31888;44.512;26.104;2023-02-28T02:19:09;26.25;;;11.50;;
46158;SDS011;31888;44.512;26.104;2023-02-28T02:21:53;26.60;;;9.90;;
46158;SDS011;31888;44.512;26.104;2023-02-28T02:24:48;24.58;;;11.60;;
46158;SDS011;31888;44.512;26.104;2023-02-28T02:27:39;24.20;;;10.85;;
46158;SDS011;31888;44.512;26.104;2023-02-28T02:33:28;31.98;;;12.85;;
46158;SDS011;31888;44.512;26.104;2023-02-28T02:36:15;26.30;;;11.77;;
46158;SDS011;31888;44.512;26.104;2023-02-28T02:38:45;25.02;;;12.80;;
46158;SDS011;31888;44.512;26.104;2023-02-28T02:41:14;21.83;;;10.70;;
46158;SDS011;31888;44.512;26.104;2023-02-28T02:43:44;24.17;;;10.63;;
46158;SDS011;31888;44.512;26.104;2023-02-28T02:46:13;26.40;;;12.48;;
46158;SDS011;31888;44.512;26.104;2023-02-28T02:48:43;21.95;;;10.63;;
46158;SDS011;31888;44.512;26.104;2023-02-28T02:51:10;22.67;;;11.18;;
46158;SDS011;31888;44.512;26.104;2023-02-28T02:53:40;21.83;;;11.18;;
46158;SDS011;31888;44.512;26.104;2023-02-28T02:56:07;22.25;;;10.40;;
46158;SDS011;31888;44.512;26.104;2023-02-28T02:58:37;20.95;;;8.70;;
46158;SDS011;31888;44.512;26.104;2023-02-28T03:01:06;26.80;;;12.55;;
46158;SDS011;31888;44.512;26.104;2023-02-28T03:03:34;19.83;;;8.45;;
46158;SDS011;31888;44.512;26.104;2023-02-28T03:06:01;26.50;;;12.25;;
46158;SDS011;31888;44.512;26.104;2023-02-28T03:08:28;28.40;;;12.27;;
46158;SDS011;31888;44.512;26.104;2023-02-28T03:13:30;22.77;;;10.18;;
46158;SDS011;31888;44.512;26.104;2023-02-28T03:16:28;26.60;;;11.18;;
46158;SDS011;31888;44.512;26.104;2023-02-28T03:19:11;28.88;;;13.18;;
46158;SDS011;31888;44.512;26.104;2023-02-28T03:21:50;23.55;;;10.93;;
46158;SDS011;31888;44.512;26.104;2023-02-28T03:24:25;26.92;;;12.10;;
46158;SDS011;31888;44.512;26.104;2023-02-28T03:27:02;22.17;;;11.20;;
46158;SDS011;31888;44.512;26.104;2023-02-28T03:29:33;28.75;;;13.00;;
46158;SDS011;31888;44.512;26.104;2023-02-28T03:32:03;27.13;;;11.48;;
46158;SDS011;31888;44.512;26.104;2023-02-28T03:34:37;27.38;;;11.77;;
46158;SDS011;31888;44.512;26.104;2023-02-28T03:37:07;28.73;;;12.80;;
46158;SDS011;31888;44.512;26.104;2023-02-28T03:39:36;30.85;;;11.75;;
46158;SDS011;31888;44.512;26.104;2023-02-28T03:42:06;26.50;;;12.18;;
46158;SDS011;31888;44.512;26.104;2023-02-28T03:44:36;20.58;;;10.55;;
46158;SDS011;31888;44.512;26.104;2023-02-28T03:47:07;27.90;;;12.63;;
46158;SDS011;31888;44.512;26.104;2023-02-28T03:49:35;22.02;;;10.10;;
46158;SDS011;31888;44.512;26.104;2023-02-28T03:52:06;27.08;;;11.70;;
46158;SDS011;31888;44.512;26.104;2023-02-28T03:54:33;27.08;;;13.18;;
46158;SDS011;31888;44.512;26.104;2023-02-28T03:57:03;17.40;;;8.03;;
46158;SDS011;31888;44.512;26.104;2023-02-28T03:59:34;29.90;;;13.75;;
46158;SDS011;31888;44.512;26.104;2023-02-28T04:02:02;24.35;;;12.15;;
46158;SDS011;31888;44.512;26.104;2023-02-28T04:04:27;16.15;;;7.40;;
46158;SDS011;31888;44.512;26.104;2023-02-28T04:06:51;26.30;;;11.98;;
46158;SDS011;31888;44.512;26.104;2023-02-28T04:09:23;24.77;;;11.10;;
46158;SDS011;31888;44.512;26.104;2023-02-28T04:11:49;26.80;;;11.55;;
46158;SDS011;31888;44.512;26.104;2023-02-28T04:14:16;21.83;;;9.77;;
46158;SDS011;31888;44.512;26.104;2023-02-28T04:16:41;26.77;;;12.20;;
46158;SDS011;31888;44.512;26.104;2023-02-28T04:19:07;23.13;;;8.43;;
46158;SDS011;31888;44.512;26.104;2023-02-28T04:21:34;23.50;;;10.68;;
46158;SDS011;31888;44.512;26.104;2023-02-28T04:24:01;26.33;;;12.70;;
46158;SDS011;31888;44.512;26.104;2023-02-28T04:26:28;23.80;;;9.80;;
46158;SDS011;31888;44.512;26.104;2023-02-28T04:28:53;29.88;;;11.65;;
46158;SDS011;31888;44.512;26.104;2023-02-28T04:31:19;25.33;;;11.75;;
46158;SDS011;31888;44.512;26.104;2023-02-28T04:33:43;25.17;;;11.93;;
46158;SDS011;31888;44.512;26.104;2023-02-28T04:36:08;24.02;;;11.48;;
46158;SDS011;31888;44.512;26.104;2023-02-28T04:38:33;24.95;;;11.02;;
46158;SDS011;31888;44.512;26.104;2023-02-28T04:40:59;23.83;;;9.20;;
46158;SDS011;31888;44.512;26.104;2023-02-28T04:43:25;27.13;;;12.18;;
46158;SDS011;31888;44.512;26.104;2023-02-28T04:45:50;23.85;;;10.32;;
46158;SDS011;31888;44.512;26.104;2023-02-28T04:48:16;24.58;;;10.75;;
46158;SDS011;31888;44.512;26.104;2023-02-28T04:50:43;29.52;;;12.57;;
46158;SDS011;31888;44.512;26.104;2023-02-28T04:53:08;27.80;;;12.52;;
46158;SDS011;31888;44.512;26.104;2023-02-28T04:55:34;30.15;;;13.40;;
46158;SDS011;31888;44.512;26.104;2023-02-28T04:57:59;21.90;;;9.43;;
46158;SDS011;31888;44.512;26.104;2023-02-28T05:00:23;24.55;;;11.35;;
46158;SDS011;31888;44.512;26.104;2023-02-28T05:02:48;30.88;;;13.73;;
46158;SDS011;31888;44.512;26.104;2023-02-28T05:05:13;26.00;;;11.27;;
46158;SDS011;31888;44.512;26.104;2023-02-28T05:07:40;26.35;;;12.85;;
46158;SDS011;31888;44.512;26.104;2023-02-28T05:10:05;31.73;;;13.73;;
46158;SDS011;31888;44.512;26.104;2023-02-28T05:12:32;28.83;;;12.43;;
46158;SDS011;31888;44.512;26.104;2023-02-28T05:14:56;29.65;;;13.70;;
46158;SDS011;31888;44.512;26.104;2023-02-28T05:17:21;31.90;;;13.07;;
46158;SDS011;31888;44.512;26.104;2023-02-28T05:19:45;24.40;;;10.80;;
46158;SDS011;31888;44.512;26.104;2023-02-28T05:22:14;29.50;;;13.27;;
46158;SDS011;31888;44.512;26.104;2023-02-28T05:24:40;30.65;;;14.15;;
46158;SDS011;31888;44.512;26.104;2023-02-28T05:27:05;30.98;;;14.13;;
46158;SDS011;31888;44.512;26.104;2023-02-28T05:29:29;31.58;;;14.30;;
46158;SDS011;31888;44.512;26.104;2023-02-28T05:31:54;29.20;;;13.20;;
46158;SDS011;31888;44.512;26.104;2023-02-28T05:34:18;23.52;;;10.80;;
46158;SDS011;31888;44.512;26.104;2023-02-28T05:36:43;31.77;;;14.57;;
46158;SDS011;31888;44.512;26.104;2023-02-28T05:39:09;26.77;;;11.25;;
46158;SDS011;31888;44.512;26.104;2023-02-28T05:41:35;29.23;;;11.57;;
46158;SDS011;31888;44.512;26.104;2023-02-28T05:44:00;43.63;;;17.17;;
46158;SDS011;31888;44.512;26.104;2023-02-28T05:46:24;36.08;;;15.50;;
46158;SDS011;31888;44.512;26.104;2023-02-28T05:48:49;36.47;;;13.68;;
46158;SDS011;31888;44.512;26.104;2023-02-28T05:51:13;33.20;;;15.60;;
46158;SDS011;31888;44.512;26.104;2023-02-28T05:53:38;38.60;;;15.02;;
46158;SDS011;31888;44.512;26.104;2023-02-28T05:56:05;28.83;;;12.80;;
46158;SDS011;31888;44.512;26.104;2023-02-28T05:58:30;27.42;;;12.13;;
46158;SDS011;31888;44.512;26.104;2023-02-28T06:00:55;27.77;;;12.25;;
46158;SDS011;31888;44.512;26.104;2023-02-28T06:03:19;37.72;;;15.88;;
46158;SDS011;31888;44.512;26.104;2023-02-28T06:05:44;37.13;;;14.98;;
46158;SDS011;31888;44.512;26.104;2023-02-28T06:08:09;38.92;;;16.73;;
46158;SDS011;31888;44.512;26.104;2023-02-28T06:10:33;34.85;;;13.90;;
46158;SDS011;31888;44.512;26.104;2023-02-28T06:13:00;42.75;;;18.20;;
46158;SDS011;31888;44.512;26.104;2023-02-28T06:15:25;40.28;;;16.65;;
46158;SDS011;31888;44.512;26.104;2023-02-28T06:17:50;39.10;;;15.93;;
46158;SDS011;31888;44.512;26.104;2023-02-28T06:20:14;33.67;;;14.85;;
46158;SDS011;31888;44.512;26.104;2023-02-28T06:22:39;39.97;;;15.85;;
46158;SDS011;31888;44.512;26.104;2023-02-28T06:25:04;35.47;;;13.73;;
46158;SDS011;31888;44.512;26.104;2023-02-28T06:27:31;34.88;;;16.20;;
46158;SDS011;31888;44.512;26.104;2023-02-28T06:29:57;38.33;;;15.93;;
46158;SDS011;31888;44.512;26.104;2023-02-28T06:32:22;36.33;;;16.50;;
46158;SDS011;31888;44.512;26.104;2023-02-28T06:34:47;34.47;;;16.60;;
46158;SDS011;31888;44.512;26.104;2023-02-28T06:37:11;35.53;;;15.48;;
46158;SDS011;31888;44.512;26.104;2023-02-28T06:39:35;39.38;;;15.70;;
46158;SDS011;31888;44.512;26.104;2023-02-28T06:42:01;39.08;;;16.38;;
46158;SDS011;31888;44.512;26.104;2023-02-28T06:44:25;31.90;;;13.93;;
46158;SDS011;31888;44.512;26.104;2023-02-28T06:49:21;39.03;;;15.68;;
46158;SDS011;31888;44.512;26.104;2023-02-28T06:51:45;29.83;;;11.52;;
46158;SDS011;31888;44.512;26.104;2023-02-28T06:54:10;35.40;;;14.52;;
46158;SDS011;31888;44.512;26.104;2023-02-28T06:56:35;35.20;;;14.23;;
46158;SDS011;31888;44.512;26.104;2023-02-28T06:59:00;32.85;;;15.00;;
46158;SDS011;31888;44.512;26.104;2023-02-28T07:01:26;37.20;;;15.73;;
46158;SDS011;31888;44.512;26.104;2023-02-28T07:03:52;40.78;;;16.80;;
46158;SDS011;31888;44.512;26.104;2023-02-28T07:06:17;33.65;;;14.50;;
46158;SDS011;31888;44.512;26.104;2023-02-28T07:08:42;33.00;;;15.02;;
46158;SDS011;31888;44.512;26.104;2023-02-28T07:11:06;38.60;;;17.17;;
46158;SDS011;31888;44.512;26.104;2023-02-28T07:13:32;33.47;;;13.88;;
46158;SDS011;31888;44.512;26.104;2023-02-28T07:15:57;35.40;;;16.45;;
46158;SDS011;31888;44.512;26.104;2023-02-28T07:18:23;27.60;;;11.23;;
46158;SDS011;31888;44.512;26.104;2023-02-28T07:20:49;31.67;;;14.07;;
46158;SDS011;31888;44.512;26.104;2023-02-28T07:23:14;35.55;;;15.77;;
46158;SDS011;31888;44.512;26.104;2023-02-28T07:25:39;33.00;;;15.70;;
46158;SDS011;31888;44.512;26.104;2023-02-28T07:28:03;31.88;;;14.95;;
46158;SDS011;31888;44.512;26.104;2023-02-28T07:30:28;40.03;;;16.35;;
46158;SDS011;31888;44.512;26.104;2023-02-28T07:32:52;36.70;;;16.48;;
46158;SDS011;31888;44.512;26.104;2023-02-28T07:35:18;38.72;;;15.32;;
46158;SDS011;31888;44.512;26.104;2023-02-28T07:37:44;37.45;;;14.77;;
46158;SDS011;31888;44.512;26.104;2023-02-28T07:40:10;32.10;;;15.55;;
46158;SDS011;31888;44.512;26.104;2023-02-28T07:42:35;32.22;;;15.30;;
46158;SDS011;31888;44.512;26.104;2023-02-28T07:45:00;35.65;;;15.70;;
46158;SDS011;31888;44.512;26.104;2023-02-28T07:47:25;38.30;;;15.13;;
46158;SDS011;31888;44.512;26.104;2023-02-28T07:49:50;39.15;;;16.00;;
46158;SDS011;31888;44.512;26.104;2023-02-28T07:52:15;35.58;;;15.35;;
46158;SDS011;31888;44.512;26.104;2023-02-28T07:54:41;30.38;;;12.73;;
46158;SDS011;31888;44.512;26.104;2023-02-28T07:57:05;32.45;;;13.63;;
46158;SDS011;31888;44.512;26.104;2023-02-28T07:59:31;40.13;;;16.23;;
46158;SDS011;31888;44.512;26.104;2023-02-28T08:01:56;41.00;;;15.73;;
46158;SDS011;31888;44.512;26.104;2023-02-28T08:04:21;32.53;;;13.13;;
46158;SDS011;31888;44.512;26.104;2023-02-28T08:06:46;38.05;;;16.30;;
46158;SDS011;31888;44.512;26.104;2023-02-28T08:09:10;31.38;;;15.10;;
46158;SDS011;31888;44.512;26.104;2023-02-28T08:11:36;36.00;;;16.02;;
46158;SDS011;31888;44.512;26.104;2023-02-28T08:14:02;35.42;;;17.17;;
46158;SDS011;31888;44.512;26.104;2023-02-28T08:16:27;37.38;;;14.82;;
46158;SDS011;31888;44.512;26.104;2023-02-28T08:18:51;36.22;;;12.18;;
46158;SDS011;31888;44.512;26.104;2023-02-28T08:21:18;41.72;;;16.75;;
46158;SDS011;31888;44.512;26.104;2023-02-28T08:23:42;41.08;;;18.13;;
46158;SDS011;31888;44.512;26.104;2023-02-28T08:26:07;39.35;;;16.45;;
46158;SDS011;31888;44.512;26.104;2023-02-28T08:28:33;39.72;;;16.83;;
46158;SDS011;31888;44.512;26.104;2023-02-28T08:30:57;38.58;;;17.02;;
46158;SDS011;31888;44.512;26.104;2023-02-28T08:33:22;36.08;;;13.50;;
46158;SDS011;31888;44.512;26.104;2023-02-28T08:35:48;38.72;;;14.65;;
46158;SDS011;31888;44.512;26.104;2023-02-28T08:38:12;35.45;;;15.15;;
46158;SDS011;31888;44.512;26.104;2023-02-28T08:40:37;41.67;;;18.05;;
46158;SDS011;31888;44.512;26.104;2023-02-28T08:43:01;44.72;;;17.42;;
46158;SDS011;31888;44.512;26.104;2023-02-28T08:45:27;44.63;;;18.05;;
46158;SDS011;31888;44.512;26.104;2023-02-28T08:47:51;42.90;;;19.58;;
46158;SDS011;31888;44.512;26.104;2023-02-28T08:50:17;43.05;;;18.60;;
46158;SDS011;31888;44.512;26.104;2023-02-28T08:52:42;40.47;;;18.40;;
46158;SDS011;31888;44.512;26.104;2023-02-28T08:55:07;46.20;;;19.42;;
46158;SDS011;31888;44.512;26.104;2023-02-28T08:57:34;36.33;;;16.02;;
46158;SDS011;31888;44.512;26.104;2023-02-28T08:59:58;40.85;;;18.63;;
46158;SDS011;31888;44.512;26.104;2023-02-28T09:02:26;45.35;;;18.33;;
46158;SDS011;31888;44.512;26.104;2023-02-28T09:04:51;37.90;;;14.18;;
46158;SDS011;31888;44.512;26.104;2023-02-28T09:07:15;46.00;;;18.63;;
46158;SDS011;31888;44.512;26.104;2023-02-28T09:09:40;39.80;;;16.50;;
46158;SDS011;31888;44.512;26.104;2023-02-28T09:12:16;30.90;;;14.68;;
46158;SDS011;31888;44.512;26.104;2023-02-28T09:14:40;44.45;;;20.13;;
46158;SDS011;31888;44.512;26.104;2023-02-28T09:17:05;40.13;;;16.08;;
46158;SDS011;31888;44.512;26.104;2023-02-28T09:19:32;41.75;;;16.98;;
46158;SDS011;31888;44.512;26.104;2023-02-28T09:21:57;40.03;;;18.40;;
46158;SDS011;31888;44.512;26.104;2023-02-28T09:24:21;45.22;;;18.98;;
46158;SDS011;31888;44.512;26.104;2023-02-28T09:26:45;42.10;;;17.63;;
46158;SDS011;31888;44.512;26.104;2023-02-28T09:29:25;46.35;;;18.55;;
46158;SDS011;31888;44.512;26.104;2023-02-28T09:31:50;43.05;;;14.25;;
46158;SDS011;31888;44.512;26.104;2023-02-28T09:34:15;40.95;;;18.50;;
46158;SDS011;31888;44.512;26.104;2023-02-28T09:36:41;46.97;;;19.10;;
46158;SDS011;31888;44.512;26.104;2023-02-28T09:39:08;46.92;;;19.33;;
46158;SDS011;31888;44.512;26.104;2023-02-28T09:41:36;45.63;;;19.35;;
46158;SDS011;31888;44.512;26.104;2023-02-28T09:44:10;43.42;;;19.10;;
46158;SDS011;31888;44.512;26.104;2023-02-28T09:46:40;47.90;;;20.45;;
46158;SDS011;31888;44.512;26.104;2023-02-28T09:49:10;42.70;;;19.20;;
46158;SDS011;31888;44.512;26.104;2023-02-28T09:51:46;42.70;;;18.88;;
46158;SDS011;31888;44.512;26.104;2023-02-28T09:54:15;37.95;;;16.63;;
46158;SDS011;31888;44.512;26.104;2023-02-28T09:56:42;45.85;;;17.73;;
46158;SDS011;31888;44.512;26.104;2023-02-28T09:59:10;39.15;;;17.92;;
46158;SDS011;31888;44.512;26.104;2023-02-28T10:01:43;44.03;;;17.38;;
46158;SDS011;31888;44.512;26.104;2023-02-28T10:04:16;46.20;;;18.63;;
46158;SDS011;31888;44.512;26.104;2023-02-28T10:06:50;31.65;;;13.93;;
46158;SDS011;31888;44.512;26.104;2023-02-28T10:09:17;42.15;;;17.95;;
46158;SDS011;31888;44.512;26.104;2023-02-28T10:11:46;37.70;;;17.70;;
46158;SDS011;31888;44.512;26.104;2023-02-28T10:14:13;46.28;;;20.50;;
46158;SDS011;31888;44.512;26.104;2023-02-28T10:16:40;47.13;;;21.40;;
46158;SDS011;31888;44.512;26.104;2023-02-28T10:19:14;44.88;;;20.65;;
46158;SDS011;31888;44.512;26.104;2023-02-28T10:21:45;45.95;;;20.15;;
46158;SDS011;31888;44.512;26.104;2023-02-28T10:24:19;43.40;;;19.95;;
46158;SDS011;31888;44.512;26.104;2023-02-28T10:26:47;50.17;;;20.25;;
46158;SDS011;31888;44.512;26.104;2023-02-28T10:29:12;36.35;;;16.10;;
46158;SDS011;31888;44.512;26.104;2023-02-28T10:31:36;50.05;;;21.20;;
46158;SDS011;31888;44.512;26.104;2023-02-28T10:34:03;40.47;;;18.35;;
46158;SDS011;31888;44.512;26.104;2023-02-28T10:36:28;49.75;;;22.20;;
46158;SDS011;31888;44.512;26.104;2023-02-28T10:38:57;47.63;;;21.00;;
46158;SDS011;31888;44.512;26.104;2023-02-28T10:41:30;48.35;;;21.35;;
46158;SDS011;31888;44.512;26.104;2023-02-28T10:44:16;43.88;;;20.52;;
46158;SDS011;31888;44.512;26.104;2023-02-28T10:46:44;44.92;;;19.77;;
46158;SDS011;31888;44.512;26.104;2023-02-28T10:49:13;46.08;;;20.15;;
46158;SDS011;31888;44.512;26.104;2023-02-28T10:51:41;44.58;;;22.10;;
46158;SDS011;31888;44.512;26.104;2023-02-28T10:54:06;48.97;;;22.33;;
46158;SDS011;31888;44.512;26.104;2023-02-28T10:56:41;44.33;;;20.77;;
46158;SDS011;31888;44.512;26.104;2023-02-28T10:59:22;46.15;;;20.58;;
46158;SDS011;31888;44.512;26.104;2023-02-28T11:01:53;39.03;;;17.90;;
46158;SDS011;31888;44.512;26.104;2023-02-28T11:04:18;41.05;;;18.50;;
46158;SDS011;31888;44.512;26.104;2023-02-28T11:06:44;52.22;;;21.95;;
46158;SDS011;31888;44.512;26.104;2023-02-28T11:09:16;49.13;;;21.58;;
46158;SDS011;31888;44.512;26.104;2023-02-28T11:11:48;46.75;;;21.25;;
46158;SDS011;31888;44.512;26.104;2023-02-28T11:14:17;51.30;;;23.17;;
46158;SDS011;31888;44.512;26.104;2023-02-28T11:16:44;47.25;;;20.90;;
46158;SDS011;31888;44.512;26.104;2023-02-28T11:19:15;53.67;;;23.50;;
46158;SDS011;31888;44.512;26.104;2023-02-28T11:21:46;49.10;;;21.77;;
46158;SDS011;31888;44.512;26.104;2023-02-28T11:24:21;52.40;;;22.83;;
46158;SDS011;31888;44.512;26.104;2023-02-28T11:26:49;48.65;;;24.10;;
46158;SDS011;31888;44.512;26.104;2023-02-28T11:29:18;39.13;;;16.52;;
46158;SDS011;31888;44.512;26.104;2023-02-28T11:31:46;47.60;;;19.35;;
46158;SDS011;31888;44.512;26.104;2023-02-28T11:34:26;35.63;;;14.90;;
46158;SDS011;31888;44.512;26.104;2023-02-28T11:36:51;58.47;;;23.73;;
46158;SDS011;31888;44.512;26.104;2023-02-28T11:39:19;47.78;;;20.73;;
46158;SDS011;31888;44.512;26.104;2023-02-28T11:41:49;51.78;;;24.15;;
46158;SDS011;31888;44.512;26.104;2023-02-28T11:44:28;54.45;;;22.25;;
46158;SDS011;31888;44.512;26.104;2023-02-28T11:47:04;48.63;;;22.75;;
46158;SDS011;31888;44.512;26.104;2023-02-28T11:49:37;48.10;;;20.35;;
46158;SDS011;31888;44.512;26.104;2023-02-28T11:52:15;53.67;;;22.60;;
46158;SDS011;31888;44.512;26.104;2023-02-28T11:54:51;52.33;;;23.30;;
46158;SDS011;31888;44.512;26.104;2023-02-28T11:57:30;56.50;;;25.85;;
46158;SDS011;31888;44.512;26.104;2023-02-28T12:00:07;55.38;;;25.13;;
46158;SDS011;31888;44.512;26.104;2023-02-28T12:02:52;47.67;;;22.42;;
46158;SDS011;31888;44.512;26.104;2023-02-28T12:05:28;55.83;;;24.67;;
46158;SDS011;31888;44.512;26.104;2023-02-28T12:08:06;55.20;;;25.30;;
46158;SDS011;31888;44.512;26.104;2023-02-28T12:10:42;54.35;;;23.92;;
46158;SDS011;31888;44.512;26.104;2023-02-28T12:13:18;55.35;;;22.65;;
46158;SDS011;31888;44.512;26.104;2023-02-28T12:15:53;53.92;;;24.63;;
46158;SDS011;31888;44.512;26.104;2023-02-28T12:18:39;57.67;;;25.73;;
46158;SDS011;31888;44.512;26.104;2023-02-28T12:23:57;60.65;;;25.40;;
46158;SDS011;31888;44.512;26.104;2023-02-28T12:26:52;55.35;;;25.02;;
46158;SDS011;31888;44.512;26.104;2023-02-28T12:29:21;54.33;;;26.77;;
46158;SDS011;31888;44.512;26.104;2023-02-28T12:31:52;52.92;;;25.00;;
46158;SDS011;31888;44.512;26.104;2023-02-28T12:34:25;49.75;;;22.80;;
46158;SDS011;31888;44.512;26.104;2023-02-28T12:36:54;48.30;;;20.55;;
46158;SDS011;31888;44.512;26.104;2023-02-28T12:39:23;51.95;;;21.42;;
46158;SDS011;31888;44.512;26.104;2023-02-28T12:41:53;49.53;;;21.85;;
46158;SDS011;31888;44.512;26.104;2023-02-28T12:44:21;56.35;;;26.27;;
46158;SDS011;31888;44.512;26.104;2023-02-28T12:46:53;48.03;;;21.70;;
46158;SDS011;31888;44.512;26.104;2023-02-28T12:49:21;47.45;;;18.52;;
46158;SDS011;31888;44.512;26.104;2023-02-28T12:51:52;36.83;;;15.90;;
46158;SDS011;31888;44.512;26.104;2023-02-28T12:54:19;51.50;;;23.45;;
46158;SDS011;31888;44.512;26.104;2023-02-28T12:56:50;52.80;;;22.98;;
46158;SDS011;31888;44.512;26.104;2023-02-28T12:59:24;58.38;;;24.42;;
46158;SDS011;31888;44.512;26.104;2023-02-28T13:01:56;48.25;;;23.05;;
46158;SDS011;31888;44.512;26.104;2023-02-28T13:07:30;57.72;;;24.88;;
46158;SDS011;31888;44.512;26.104;2023-02-28T13:10:11;48.30;;;22.95;;
46158;SDS011;31888;44.512;26.104;2023-02-28T13:12:38;57.85;;;26.77;;
46158;SDS011;31888;44.512;26.104;2023-02-28T13:15:16;50.88;;;24.77;;
46158;SDS011;31888;44.512;26.104;2023-02-28T13:17:48;59.88;;;25.33;;
46158;SDS011;31888;44.512;26.104;2023-02-28T13:20:14;55.90;;;26.63;;
46158;SDS011;31888;44.512;26.104;2023-02-28T13:22:43;59.30;;;27.15;;
46158;SDS011;31888;44.512;26.104;2023-02-28T13:28:55;60.60;;;26.92;;
46158;SDS011;31888;44.512;26.104;2023-02-28T13:31:18;57.72;;;25.88;;
46158;SDS011;31888;44.512;26.104;2023-02-28T13:36:30;55.88;;;25.58;;
46158;SDS011;31888;44.512;26.104;2023-02-28T13:38:55;64.30;;;27.45;;
46158;SDS011;31888;44.512;26.104;2023-02-28T13:44:13;59.67;;;26.88;;
46158;SDS011;31888;44.512;26.104;2023-02-28T13:49:51;59.65;;;27.20;;
46158;SDS011;31888;44.512;26.104;2023-02-28T13:52:17;61.58;;;25.95;;
46158;SDS011;31888;44.512;26.104;2023-02-28T13:54:50;64.07;;;26.92;;
46158;SDS011;31888;44.512;26.104;2023-02-28T13:57:49;55.45;;;25.70;;
46158;SDS011;31888;44.512;26.104;2023-02-28T14:00:31;66.28;;;27.60;;
46158;SDS011;31888;44.512;26.104;2023-02-28T14:03:17;66.72;;;29.75;;
46158;SDS011;31888;44.512;26.104;2023-02-28T14:06:08;63.20;;;30.13;;
46158;SDS011;31888;44.512;26.104;2023-02-28T14:08:49;60.38;;;25.83;;
46158;SDS011;31888;44.512;26.104;2023-02-28T14:11:27;64.05;;;28.30;;
46158;SDS011;31888;44.512;26.104;2023-02-28T14:13:53;74.75;;;30.00;;
46158;SDS011;31888;44.512;26.104;2023-02-28T14:16:20;49.70;;;22.58;;
46158;SDS011;31888;44.512;26.104;2023-02-28T14:18:49;60.80;;;27.60;;
46158;SDS011;31888;44.512;26.104;2023-02-28T14:21:20;64.32;;;29.63;;
46158;SDS011;31888;44.512;26.104;2023-02-28T14:30:11;52.50;;;24.10;;
46158;SDS011;31888;44.512;26.104;2023-02-28T14:32:54;58.47;;;26.02;;
46158;SDS011;31888;44.512;26.104;2023-02-28T14:35:40;57.47;;;27.20;;
46158;SDS011;31888;44.512;26.104;2023-02-28T14:38:17;64.38;;;27.73;;
46158;SDS011;31888;44.512;26.104;2023-02-28T14:40:47;56.42;;;23.98;;
46158;SDS011;31888;44.512;26.104;2023-02-28T14:43:19;60.67;;;29.30;;
46158;SDS011;31888;44.512;26.104;2023-02-28T14:45:48;54.38;;;25.40;;
46158;SDS011;31888;44.512;26.104;2023-02-28T14:48:14;45.17;;;19.40;;